Reid Restricted Landing Area

Jump to: basic info | weather | runways | comments

Related pages: nearby airports | nearby navaids | notams | map

Basic information (top)

Codes: 6IL6
Location: lon 42.118401, lat -88.407898, elev 920 ft / 280 m msl
Status: small_airport

Weather (top)

Current conditions for Dupage Airport 15nm (27km) SSE (rec'd 2015/03/01 03:52Z):

KDPA 010352Z 15004KT 5SM -SN BR OVC048 M08/M11 A3048 RMK AO2 SLP336 P0000 T10831106

Airport forecast for Dupage Airport 15nm (27km) SSE (rec'd 2015/02/28 00:27Z):

TAF KDPA 282326Z 0100/0124 15006KT P6SM OVC150 
     FM010300 16006KT 2SM -SN BR OVC015 
     FM010700 VRB02KT P6SM OVC015 
     FM011700 25008KT P6SM OVC025

Runways (top)

E/W: 3,000 x 105 ft (914 x 32 m) — grass — not lighted

N/S: 2,100 x 105 ft (640 x 32 m) — grass — not lighted

Latest comments (top)

No comments yet for Reid Restricted Landing Area

More... (top)

See also NOTAMs and nearby airports and navaids, or visit the Reid Restricted Landing Area page at the main OurAirports website..